RJFZ(METAR)
07/27 19:00
METAR RJFZ 271000Z 36015KT 9999 FEW030 30/23 Q1000 RMK 1CU030 A2953=
戻る
トップページへ戻る
IMOC Co,.Ltd.